sensor_id;sensor_type;location;lat;lon;timestamp;P1;durP1;ratioP1;P2;durP2;ratioP2
19569;SDS011;9931;51.458;7.256;2023-05-07T00:01:28;19.25;;;1.70;;
19569;SDS011;9931;51.458;7.256;2023-05-07T00:03:53;25.17;;;2.08;;
19569;SDS011;9931;51.458;7.256;2023-05-07T00:06:19;21.20;;;1.80;;
19569;SDS011;9931;51.458;7.256;2023-05-07T00:08:44;27.02;;;2.08;;
19569;SDS011;9931;51.458;7.256;2023-05-07T00:11:09;18.15;;;1.70;;
19569;SDS011;9931;51.458;7.256;2023-05-07T00:13:35;12.60;;;1.25;;
19569;SDS011;9931;51.458;7.256;2023-05-07T00:16:01;34.55;;;2.78;;
19569;SDS011;9931;51.458;7.256;2023-05-07T00:18:26;18.90;;;1.67;;
19569;SDS011;9931;51.458;7.256;2023-05-07T00:20:51;23.67;;;2.07;;
19569;SDS011;9931;51.458;7.256;2023-05-07T00:23:17;25.77;;;2.10;;
19569;SDS011;9931;51.458;7.256;2023-05-07T00:25:42;19.90;;;1.67;;
19569;SDS011;9931;51.458;7.256;2023-05-07T00:28:07;17.25;;;1.58;;
19569;SDS011;9931;51.458;7.256;2023-05-07T00:30:32;18.63;;;1.70;;
19569;SDS011;9931;51.458;7.256;2023-05-07T00:32:57;33.42;;;2.60;;
19569;SDS011;9931;51.458;7.256;2023-05-07T00:35:23;18.83;;;1.63;;
19569;SDS011;9931;51.458;7.256;2023-05-07T00:37:48;9.68;;;0.95;;
19569;SDS011;9931;51.458;7.256;2023-05-07T00:40:13;16.40;;;1.48;;
19569;SDS011;9931;51.458;7.256;2023-05-07T00:42:39;36.08;;;2.92;;
19569;SDS011;9931;51.458;7.256;2023-05-07T00:45:04;14.88;;;1.35;;
19569;SDS011;9931;51.458;7.256;2023-05-07T00:47:30;12.93;;;1.25;;
19569;SDS011;9931;51.458;7.256;2023-05-07T00:49:56;46.03;;;3.40;;
19569;SDS011;9931;51.458;7.256;2023-05-07T00:52:22;18.20;;;1.58;;
19569;SDS011;9931;51.458;7.256;2023-05-07T00:54:49;16.15;;;1.48;;
19569;SDS011;9931;51.458;7.256;2023-05-07T00:57:14;4.47;;;0.60;;
19569;SDS011;9931;51.458;7.256;2023-05-07T00:59:40;18.75;;;1.73;;
19569;SDS011;9931;51.458;7.256;2023-05-07T01:02:05;63.20;;;4.57;;
19569;SDS011;9931;51.458;7.256;2023-05-07T01:04:31;58.85;;;4.43;;
19569;SDS011;9931;51.458;7.256;2023-05-07T01:06:56;65.10;;;4.80;;
19569;SDS011;9931;51.458;7.256;2023-05-07T01:09:23;17.50;;;1.67;;
19569;SDS011;9931;51.458;7.256;2023-05-07T01:11:49;22.90;;;2.05;;
19569;SDS011;9931;51.458;7.256;2023-05-07T01:14:14;17.83;;;1.65;;
19569;SDS011;9931;51.458;7.256;2023-05-07T01:16:39;17.65;;;1.58;;
19569;SDS011;9931;51.458;7.256;2023-05-07T01:19:06;22.45;;;1.80;;
19569;SDS011;9931;51.458;7.256;2023-05-07T01:21:32;23.77;;;2.03;;
19569;SDS011;9931;51.458;7.256;2023-05-07T01:23:58;23.40;;;1.92;;
19569;SDS011;9931;51.458;7.256;2023-05-07T01:26:23;35.25;;;2.70;;
19569;SDS011;9931;51.458;7.256;2023-05-07T01:28:48;29.65;;;2.33;;
19569;SDS011;9931;51.458;7.256;2023-05-07T01:31:14;19.75;;;1.73;;
19569;SDS011;9931;51.458;7.256;2023-05-07T01:33:41;29.60;;;2.45;;
19569;SDS011;9931;51.458;7.256;2023-05-07T01:36:07;42.17;;;3.15;;
19569;SDS011;9931;51.458;7.256;2023-05-07T01:38:34;32.50;;;2.53;;
19569;SDS011;9931;51.458;7.256;2023-05-07T01:41:00;36.75;;;2.88;;
19569;SDS011;9931;51.458;7.256;2023-05-07T01:43:26;34.35;;;2.65;;
19569;SDS011;9931;51.458;7.256;2023-05-07T01:45:51;21.67;;;1.83;;
19569;SDS011;9931;51.458;7.256;2023-05-07T01:48:17;45.90;;;3.45;;
19569;SDS011;9931;51.458;7.256;2023-05-07T01:50:43;30.50;;;2.42;;
19569;SDS011;9931;51.458;7.256;2023-05-07T01:53:09;34.20;;;2.65;;
19569;SDS011;9931;51.458;7.256;2023-05-07T01:55:34;16.13;;;1.48;;
19569;SDS011;9931;51.458;7.256;2023-05-07T01:58:01;33.03;;;2.58;;
19569;SDS011;9931;51.458;7.256;2023-05-07T02:00:26;21.27;;;1.88;;
19569;SDS011;9931;51.458;7.256;2023-05-07T02:02:52;22.15;;;1.95;;
19569;SDS011;9931;51.458;7.256;2023-05-07T02:05:18;25.13;;;2.08;;
19569;SDS011;9931;51.458;7.256;2023-05-07T02:07:43;20.45;;;1.75;;
19569;SDS011;9931;51.458;7.256;2023-05-07T02:10:08;21.10;;;1.85;;
19569;SDS011;9931;51.458;7.256;2023-05-07T02:12:33;15.73;;;1.42;;
19569;SDS011;9931;51.458;7.256;2023-05-07T02:14:59;10.77;;;1.10;;
19569;SDS011;9931;51.458;7.256;2023-05-07T02:17:24;15.65;;;1.45;;
19569;SDS011;9931;51.458;7.256;2023-05-07T02:19:50;25.08;;;2.10;;
19569;SDS011;9931;51.458;7.256;2023-05-07T02:22:15;22.50;;;1.90;;
19569;SDS011;9931;51.458;7.256;2023-05-07T02:24:40;15.82;;;1.48;;
19569;SDS011;9931;51.458;7.256;2023-05-07T02:27:06;25.50;;;2.13;;
19569;SDS011;9931;51.458;7.256;2023-05-07T02:29:31;18.92;;;1.75;;
19569;SDS011;9931;51.458;7.256;2023-05-07T02:31:56;45.70;;;3.45;;
19569;SDS011;9931;51.458;7.256;2023-05-07T02:34:21;18.45;;;1.70;;
19569;SDS011;9931;51.458;7.256;2023-05-07T02:36:47;35.83;;;2.80;;
19569;SDS011;9931;51.458;7.256;2023-05-07T02:39:12;5.13;;;0.65;;
19569;SDS011;9931;51.458;7.256;2023-05-07T02:41:37;20.25;;;1.77;;
19569;SDS011;9931;51.458;7.256;2023-05-07T02:44:03;19.27;;;1.60;;
19569;SDS011;9931;51.458;7.256;2023-05-07T02:46:28;23.73;;;2.03;;
19569;SDS011;9931;51.458;7.256;2023-05-07T02:48:53;5.63;;;0.65;;
19569;SDS011;9931;51.458;7.256;2023-05-07T02:51:19;40.28;;;3.10;;
19569;SDS011;9931;51.458;7.256;2023-05-07T02:53:45;23.13;;;2.00;;
19569;SDS011;9931;51.458;7.256;2023-05-07T02:56:11;22.17;;;1.92;;
19569;SDS011;9931;51.458;7.256;2023-05-07T02:58:36;57.22;;;4.13;;
19569;SDS011;9931;51.458;7.256;2023-05-07T03:01:01;11.60;;;1.13;;
19569;SDS011;9931;51.458;7.256;2023-05-07T03:03:26;7.13;;;0.77;;
19569;SDS011;9931;51.458;7.256;2023-05-07T03:05:51;16.52;;;1.60;;
19569;SDS011;9931;51.458;7.256;2023-05-07T03:08:17;36.45;;;2.80;;
19569;SDS011;9931;51.458;7.256;2023-05-07T03:10:42;44.42;;;3.35;;
19569;SDS011;9931;51.458;7.256;2023-05-07T03:13:07;34.80;;;2.67;;
19569;SDS011;9931;51.458;7.256;2023-05-07T03:15:32;35.33;;;2.78;;
19569;SDS011;9931;51.458;7.256;2023-05-07T03:17:58;17.50;;;1.55;;
19569;SDS011;9931;51.458;7.256;2023-05-07T03:20:23;14.40;;;1.30;;
19569;SDS011;9931;51.458;7.256;2023-05-07T03:22:48;24.05;;;1.95;;
19569;SDS011;9931;51.458;7.256;2023-05-07T03:25:13;7.18;;;0.82;;
19569;SDS011;9931;51.458;7.256;2023-05-07T03:27:39;16.65;;;1.50;;
19569;SDS011;9931;51.458;7.256;2023-05-07T03:30:06;41.10;;;3.13;;
19569;SDS011;9931;51.458;7.256;2023-05-07T03:32:32;35.90;;;2.80;;
19569;SDS011;9931;51.458;7.256;2023-05-07T03:34:57;18.48;;;1.60;;
19569;SDS011;9931;51.458;7.256;2023-05-07T03:37:23;27.80;;;2.25;;
19569;SDS011;9931;51.458;7.256;2023-05-07T03:39:48;7.43;;;0.90;;
19569;SDS011;9931;51.458;7.256;2023-05-07T03:42:14;6.90;;;0.80;;
19569;SDS011;9931;51.458;7.256;2023-05-07T03:44:40;55.28;;;4.10;;
19569;SDS011;9931;51.458;7.256;2023-05-07T03:47:05;25.35;;;2.08;;
19569;SDS011;9931;51.458;7.256;2023-05-07T03:49:30;16.30;;;1.48;;
19569;SDS011;9931;51.458;7.256;2023-05-07T03:51:55;71.60;;;5.07;;
19569;SDS011;9931;51.458;7.256;2023-05-07T03:54:21;4.32;;;0.63;;
19569;SDS011;9931;51.458;7.256;2023-05-07T03:56:46;70.97;;;5.18;;
19569;SDS011;9931;51.458;7.256;2023-05-07T03:59:12;20.17;;;1.75;;
19569;SDS011;9931;51.458;7.256;2023-05-07T04:01:38;45.90;;;3.55;;
19569;SDS011;9931;51.458;7.256;2023-05-07T04:04:03;39.20;;;2.97;;
19569;SDS011;9931;51.458;7.256;2023-05-07T04:06:29;14.38;;;1.30;;
19569;SDS011;9931;51.458;7.256;2023-05-07T04:08:54;19.55;;;1.65;;
19569;SDS011;9931;51.458;7.256;2023-05-07T04:11:19;15.77;;;1.43;;
19569;SDS011;9931;51.458;7.256;2023-05-07T04:13:45;15.20;;;1.30;;
19569;SDS011;9931;51.458;7.256;2023-05-07T04:16:10;21.25;;;1.85;;
19569;SDS011;9931;51.458;7.256;2023-05-07T04:18:35;40.10;;;3.03;;
19569;SDS011;9931;51.458;7.256;2023-05-07T04:21:00;14.75;;;1.40;;
19569;SDS011;9931;51.458;7.256;2023-05-07T04:23:26;73.97;;;5.30;;
19569;SDS011;9931;51.458;7.256;2023-05-07T04:25:51;19.08;;;1.70;;
19569;SDS011;9931;51.458;7.256;2023-05-07T04:28:17;53.97;;;4.00;;
19569;SDS011;9931;51.458;7.256;2023-05-07T04:30:42;43.70;;;3.40;;
19569;SDS011;9931;51.458;7.256;2023-05-07T04:33:07;45.08;;;3.22;;
19569;SDS011;9931;51.458;7.256;2023-05-07T04:35:33;22.98;;;1.90;;
19569;SDS011;9931;51.458;7.256;2023-05-07T04:37:58;25.85;;;2.13;;
19569;SDS011;9931;51.458;7.256;2023-05-07T04:40:23;17.17;;;1.52;;
19569;SDS011;9931;51.458;7.256;2023-05-07T04:42:48;24.65;;;2.05;;
19569;SDS011;9931;51.458;7.256;2023-05-07T04:45:14;42.23;;;3.20;;
19569;SDS011;9931;51.458;7.256;2023-05-07T04:47:39;15.73;;;1.42;;
19569;SDS011;9931;51.458;7.256;2023-05-07T04:50:05;13.97;;;1.23;;
19569;SDS011;9931;51.458;7.256;2023-05-07T04:52:31;51.80;;;3.92;;
19569;SDS011;9931;51.458;7.256;2023-05-07T04:54:56;34.53;;;2.70;;
19569;SDS011;9931;51.458;7.256;2023-05-07T04:57:21;19.85;;;1.80;;
19569;SDS011;9931;51.458;7.256;2023-05-07T04:59:46;35.97;;;2.87;;
19569;SDS011;9931;51.458;7.256;2023-05-07T05:02:11;15.20;;;1.42;;
19569;SDS011;9931;51.458;7.256;2023-05-07T05:04:37;47.55;;;3.60;;
19569;SDS011;9931;51.458;7.256;2023-05-07T05:07:02;19.98;;;1.67;;
19569;SDS011;9931;51.458;7.256;2023-05-07T05:09:29;15.90;;;1.50;;
19569;SDS011;9931;51.458;7.256;2023-05-07T05:11:54;23.25;;;1.98;;
19569;SDS011;9931;51.458;7.256;2023-05-07T05:14:19;29.23;;;2.35;;
19569;SDS011;9931;51.458;7.256;2023-05-07T05:16:44;13.43;;;1.27;;
19569;SDS011;9931;51.458;7.256;2023-05-07T05:19:09;18.88;;;1.63;;
19569;SDS011;9931;51.458;7.256;2023-05-07T05:21:35;14.80;;;1.38;;
19569;SDS011;9931;51.458;7.256;2023-05-07T05:24:00;48.70;;;3.67;;
19569;SDS011;9931;51.458;7.256;2023-05-07T05:26:25;17.85;;;1.58;;
19569;SDS011;9931;51.458;7.256;2023-05-07T05:28:51;33.13;;;2.63;;
19569;SDS011;9931;51.458;7.256;2023-05-07T05:31:16;35.05;;;2.83;;
19569;SDS011;9931;51.458;7.256;2023-05-07T05:33:41;34.53;;;2.70;;
19569;SDS011;9931;51.458;7.256;2023-05-07T05:36:08;25.33;;;1.97;;
19569;SDS011;9931;51.458;7.256;2023-05-07T05:38:34;11.32;;;1.13;;
19569;SDS011;9931;51.458;7.256;2023-05-07T05:40:59;32.92;;;2.67;;
19569;SDS011;9931;51.458;7.256;2023-05-07T05:43:24;27.75;;;2.33;;
19569;SDS011;9931;51.458;7.256;2023-05-07T05:45:50;30.33;;;2.47;;
19569;SDS011;9931;51.458;7.256;2023-05-07T05:48:15;35.20;;;2.72;;
19569;SDS011;9931;51.458;7.256;2023-05-07T05:50:41;31.43;;;2.60;;
19569;SDS011;9931;51.458;7.256;2023-05-07T05:53:07;31.88;;;2.55;;
19569;SDS011;9931;51.458;7.256;2023-05-07T05:55:32;37.13;;;2.92;;
19569;SDS011;9931;51.458;7.256;2023-05-07T05:57:57;36.38;;;2.78;;
19569;SDS011;9931;51.458;7.256;2023-05-07T06:00:23;32.25;;;2.60;;
19569;SDS011;9931;51.458;7.256;2023-05-07T06:02:48;15.60;;;1.45;;
19569;SDS011;9931;51.458;7.256;2023-05-07T06:05:13;9.63;;;1.00;;
19569;SDS011;9931;51.458;7.256;2023-05-07T06:07:38;40.67;;;3.15;;
19569;SDS011;9931;51.458;7.256;2023-05-07T06:10:04;26.40;;;2.17;;
19569;SDS011;9931;51.458;7.256;2023-05-07T06:12:29;17.05;;;1.58;;
19569;SDS011;9931;51.458;7.256;2023-05-07T06:14:54;15.70;;;1.35;;
19569;SDS011;9931;51.458;7.256;2023-05-07T06:17:20;56.80;;;4.15;;
19569;SDS011;9931;51.458;7.256;2023-05-07T06:19:45;31.13;;;2.43;;
19569;SDS011;9931;51.458;7.256;2023-05-07T06:22:10;21.17;;;1.85;;
19569;SDS011;9931;51.458;7.256;2023-05-07T06:24:35;18.90;;;1.70;;
19569;SDS011;9931;51.458;7.256;2023-05-07T06:27:00;47.25;;;3.67;;
19569;SDS011;9931;51.458;7.256;2023-05-07T06:29:26;32.05;;;2.65;;
19569;SDS011;9931;51.458;7.256;2023-05-07T06:31:54;34.53;;;2.83;;
19569;SDS011;9931;51.458;7.256;2023-05-07T06:34:19;23.13;;;2.08;;
19569;SDS011;9931;51.458;7.256;2023-05-07T06:36:44;17.40;;;1.55;;
19569;SDS011;9931;51.458;7.256;2023-05-07T06:39:10;11.70;;;1.23;;
19569;SDS011;9931;51.458;7.256;2023-05-07T06:41:35;19.63;;;1.75;;
19569;SDS011;9931;51.458;7.256;2023-05-07T06:44:01;15.88;;;1.50;;
19569;SDS011;9931;51.458;7.256;2023-05-07T06:46:27;18.83;;;1.70;;
19569;SDS011;9931;51.458;7.256;2023-05-07T06:48:52;20.02;;;1.75;;
19569;SDS011;9931;51.458;7.256;2023-05-07T06:51:17;15.32;;;1.40;;
19569;SDS011;9931;51.458;7.256;2023-05-07T06:53:42;20.27;;;1.87;;
19569;SDS011;9931;51.458;7.256;2023-05-07T06:56:08;24.58;;;2.00;;
19569;SDS011;9931;51.458;7.256;2023-05-07T06:58:33;25.23;;;2.13;;
19569;SDS011;9931;51.458;7.256;2023-05-07T07:00:58;17.73;;;1.63;;
19569;SDS011;9931;51.458;7.256;2023-05-07T07:03:23;15.05;;;1.42;;
19569;SDS011;9931;51.458;7.256;2023-05-07T07:05:52;9.82;;;0.98;;
19569;SDS011;9931;51.458;7.256;2023-05-07T07:08:18;8.55;;;1.00;;
19569;SDS011;9931;51.458;7.256;2023-05-07T07:10:43;20.52;;;1.83;;
19569;SDS011;9931;51.458;7.256;2023-05-07T07:13:08;21.20;;;1.83;;
19569;SDS011;9931;51.458;7.256;2023-05-07T07:15:33;16.27;;;1.52;;
19569;SDS011;9931;51.458;7.256;2023-05-07T07:17:58;38.20;;;3.00;;
19569;SDS011;9931;51.458;7.256;2023-05-07T07:20:24;13.65;;;1.27;;
19569;SDS011;9931;51.458;7.256;2023-05-07T07:22:49;14.65;;;1.48;;
19569;SDS011;9931;51.458;7.256;2023-05-07T07:25:14;25.13;;;2.17;;
19569;SDS011;9931;51.458;7.256;2023-05-07T07:27:39;14.45;;;1.42;;
19569;SDS011;9931;51.458;7.256;2023-05-07T07:30:05;13.00;;;1.30;;
19569;SDS011;9931;51.458;7.256;2023-05-07T07:32:30;15.98;;;1.48;;
19569;SDS011;9931;51.458;7.256;2023-05-07T07:34:57;8.65;;;0.90;;
19569;SDS011;9931;51.458;7.256;2023-05-07T07:37:22;24.00;;;2.03;;
19569;SDS011;9931;51.458;7.256;2023-05-07T07:39:47;14.20;;;1.33;;
19569;SDS011;9931;51.458;7.256;2023-05-07T07:42:12;17.15;;;1.63;;
19569;SDS011;9931;51.458;7.256;2023-05-07T07:44:38;4.82;;;0.60;;
19569;SDS011;9931;51.458;7.256;2023-05-07T07:47:04;14.23;;;1.35;;
19569;SDS011;9931;51.458;7.256;2023-05-07T07:49:29;13.40;;;1.42;;
19569;SDS011;9931;51.458;7.256;2023-05-07T07:51:58;7.07;;;0.88;;
19569;SDS011;9931;51.458;7.256;2023-05-07T07:54:24;9.05;;;1.00;;
19569;SDS011;9931;51.458;7.256;2023-05-07T07:56:49;24.40;;;2.05;;
19569;SDS011;9931;51.458;7.256;2023-05-07T07:59:15;25.75;;;2.25;;
19569;SDS011;9931;51.458;7.256;2023-05-07T08:01:43;9.32;;;1.15;;
19569;SDS011;9931;51.458;7.256;2023-05-07T08:04:09;9.60;;;1.00;;
19569;SDS011;9931;51.458;7.256;2023-05-07T08:06:34;12.52;;;1.23;;
19569;SDS011;9931;51.458;7.256;2023-05-07T08:08:59;15.85;;;1.58;;
19569;SDS011;9931;51.458;7.256;2023-05-07T08:11:25;20.25;;;1.73;;
19569;SDS011;9931;51.458;7.256;2023-05-07T08:13:50;12.95;;;1.33;;
19569;SDS011;9931;51.458;7.256;2023-05-07T08:16:15;12.05;;;1.25;;
19569;SDS011;9931;51.458;7.256;2023-05-07T08:18:41;40.97;;;3.28;;
19569;SDS011;9931;51.458;7.256;2023-05-07T08:21:06;18.60;;;1.80;;
19569;SDS011;9931;51.458;7.256;2023-05-07T08:23:31;8.20;;;1.08;;
19569;SDS011;9931;51.458;7.256;2023-05-07T08:25:56;85.90;;;6.07;;
19569;SDS011;9931;51.458;7.256;2023-05-07T08:28:22;31.77;;;2.63;;
19569;SDS011;9931;51.458;7.256;2023-05-07T08:30:49;21.60;;;1.88;;
19569;SDS011;9931;51.458;7.256;2023-05-07T08:33:14;33.10;;;2.65;;
19569;SDS011;9931;51.458;7.256;2023-05-07T08:35:40;16.98;;;1.55;;
19569;SDS011;9931;51.458;7.256;2023-05-07T08:38:05;19.33;;;1.75;;
19569;SDS011;9931;51.458;7.256;2023-05-07T08:40:31;20.00;;;1.85;;
19569;SDS011;9931;51.458;7.256;2023-05-07T08:43:00;20.55;;;1.77;;
19569;SDS011;9931;51.458;7.256;2023-05-07T08:45:25;29.25;;;2.33;;
19569;SDS011;9931;51.458;7.256;2023-05-07T08:47:52;25.60;;;2.22;;
19569;SDS011;9931;51.458;7.256;2023-05-07T08:50:17;19.25;;;1.63;;
19569;SDS011;9931;51.458;7.256;2023-05-07T08:52:43;17.08;;;1.55;;
19569;SDS011;9931;51.458;7.256;2023-05-07T08:55:08;30.65;;;2.47;;
19569;SDS011;9931;51.458;7.256;2023-05-07T08:57:37;15.57;;;1.48;;
19569;SDS011;9931;51.458;7.256;2023-05-07T09:00:03;21.00;;;1.88;;
19569;SDS011;9931;51.458;7.256;2023-05-07T09:02:28;31.70;;;2.40;;
19569;SDS011;9931;51.458;7.256;2023-05-07T09:04:54;11.98;;;1.27;;
19569;SDS011;9931;51.458;7.256;2023-05-07T09:07:19;18.25;;;1.70;;
19569;SDS011;9931;51.458;7.256;2023-05-07T09:09:45;16.67;;;1.67;;
19569;SDS011;9931;51.458;7.256;2023-05-07T09:12:11;16.45;;;1.58;;
19569;SDS011;9931;51.458;7.256;2023-05-07T09:14:36;7.90;;;0.98;;
19569;SDS011;9931;51.458;7.256;2023-05-07T09:17:01;20.15;;;1.88;;
19569;SDS011;9931;51.458;7.256;2023-05-07T09:19:27;19.80;;;1.73;;
19569;SDS011;9931;51.458;7.256;2023-05-07T09:21:59;17.92;;;1.75;;
19569;SDS011;9931;51.458;7.256;2023-05-07T09:24:25;28.65;;;2.63;;
19569;SDS011;9931;51.458;7.256;2023-05-07T09:26:50;16.50;;;1.80;;
19569;SDS011;9931;51.458;7.256;2023-05-07T09:29:15;20.58;;;1.95;;
19569;SDS011;9931;51.458;7.256;2023-05-07T09:31:42;5.38;;;0.88;;
19569;SDS011;9931;51.458;7.256;2023-05-07T09:34:07;13.27;;;1.73;;
19569;SDS011;9931;51.458;7.256;2023-05-07T09:36:33;27.45;;;2.53;;
19569;SDS011;9931;51.458;7.256;2023-05-07T09:39:01;14.57;;;1.73;;
19569;SDS011;9931;51.458;7.256;2023-05-07T09:41:26;21.40;;;2.10;;
19569;SDS011;9931;51.458;7.256;2023-05-07T09:43:54;23.73;;;2.60;;
19569;SDS011;9931;51.458;7.256;2023-05-07T09:46:20;19.50;;;2.53;;
19569;SDS011;9931;51.458;7.256;2023-05-07T09:48:50;25.40;;;2.63;;
19569;SDS011;9931;51.458;7.256;2023-05-07T09:51:31;7.60;;;1.98;;
19569;SDS011;9931;51.458;7.256;2023-05-07T09:56:29;29.67;;;4.30;;
19569;SDS011;9931;51.458;7.256;2023-05-07T09:58:54;33.58;;;5.43;;
19569;SDS011;9931;51.458;7.256;2023-05-07T10:01:20;24.67;;;5.30;;
19569;SDS011;9931;51.458;7.256;2023-05-07T10:03:47;31.15;;;5.18;;
19569;SDS011;9931;51.458;7.256;2023-05-07T10:06:15;27.35;;;4.50;;
19569;SDS011;9931;51.458;7.256;2023-05-07T10:08:40;39.33;;;5.35;;
19569;SDS011;9931;51.458;7.256;2023-05-07T10:11:07;24.50;;;4.75;;
19569;SDS011;9931;51.458;7.256;2023-05-07T10:13:33;28.20;;;4.93;;
19569;SDS011;9931;51.458;7.256;2023-05-07T10:16:01;34.42;;;7.10;;
19569;SDS011;9931;51.458;7.256;2023-05-07T10:18:26;34.15;;;14.15;;
19569;SDS011;9931;51.458;7.256;2023-05-07T10:20:54;56.45;;;21.95;;
19569;SDS011;9931;51.458;7.256;2023-05-07T10:23:22;38.83;;;23.55;;
19569;SDS011;9931;51.458;7.256;2023-05-07T10:25:48;37.42;;;26.58;;
19569;SDS011;9931;51.458;7.256;2023-05-07T10:28:13;45.58;;;27.42;;
19569;SDS011;9931;51.458;7.256;2023-05-07T10:33:14;17.13;;;14.65;;
19569;SDS011;9931;51.458;7.256;2023-05-07T10:35:40;25.08;;;12.98;;
19569;SDS011;9931;51.458;7.256;2023-05-07T10:38:06;34.45;;;8.50;;
19569;SDS011;9931;51.458;7.256;2023-05-07T10:40:31;21.98;;;8.88;;
19569;SDS011;9931;51.458;7.256;2023-05-07T10:42:58;29.42;;;9.63;;
19569;SDS011;9931;51.458;7.256;2023-05-07T10:45:27;21.70;;;13.07;;
19569;SDS011;9931;51.458;7.256;2023-05-07T10:48:09;60.80;;;14.05;;
19569;SDS011;9931;51.458;7.256;2023-05-07T10:50:35;22.42;;;7.82;;
19569;SDS011;9931;51.458;7.256;2023-05-07T10:55:42;26.02;;;9.30;;
19569;SDS011;9931;51.458;7.256;2023-05-07T11:00:48;24.27;;;6.50;;
19569;SDS011;9931;51.458;7.256;2023-05-07T11:03:14;25.30;;;6.75;;
19569;SDS011;9931;51.458;7.256;2023-05-07T11:05:40;24.45;;;5.03;;
19569;SDS011;9931;51.458;7.256;2023-05-07T11:08:05;14.40;;;3.75;;
19569;SDS011;9931;51.458;7.256;2023-05-07T11:13:15;17.42;;;2.63;;
19569;SDS011;9931;51.458;7.256;2023-05-07T11:15:41;36.33;;;3.22;;
19569;SDS011;9931;51.458;7.256;2023-05-07T11:18:08;53.15;;;4.20;;
19569;SDS011;9931;51.458;7.256;2023-05-07T11:20:49;85.82;;;6.20;;
19569;SDS011;9931;51.458;7.256;2023-05-07T11:25:59;21.40;;;2.30;;
19569;SDS011;9931;51.458;7.256;2023-05-07T11:28:24;24.73;;;2.53;;
19569;SDS011;9931;51.458;7.256;2023-05-07T11:30:50;24.90;;;2.60;;
19569;SDS011;9931;51.458;7.256;2023-05-07T11:33:19;25.05;;;2.25;;
19569;SDS011;9931;51.458;7.256;2023-05-07T11:35:45;17.17;;;1.67;;
19569;SDS011;9931;51.458;7.256;2023-05-07T11:38:10;24.55;;;2.17;;
19569;SDS011;9931;51.458;7.256;2023-05-07T11:40:48;30.55;;;2.35;;
19569;SDS011;9931;51.458;7.256;2023-05-07T11:43:13;17.27;;;1.52;;
19569;SDS011;9931;51.458;7.256;2023-05-07T11:45:38;27.27;;;2.15;;
19569;SDS011;9931;51.458;7.256;2023-05-07T11:48:03;13.17;;;1.20;;
19569;SDS011;9931;51.458;7.256;2023-05-07T11:50:29;52.53;;;3.58;;
19569;SDS011;9931;51.458;7.256;2023-05-07T11:52:55;28.25;;;2.20;;
19569;SDS011;9931;51.458;7.256;2023-05-07T11:55:20;36.23;;;2.60;;
19569;SDS011;9931;51.458;7.256;2023-05-07T11:57:46;36.40;;;2.72;;
19569;SDS011;9931;51.458;7.256;2023-05-07T12:00:12;17.13;;;1.45;;
19569;SDS011;9931;51.458;7.256;2023-05-07T12:02:40;16.20;;;1.48;;
19569;SDS011;9931;51.458;7.256;2023-05-07T12:05:07;19.15;;;1.60;;
19569;SDS011;9931;51.458;7.256;2023-05-07T12:07:33;47.47;;;3.28;;
19569;SDS011;9931;51.458;7.256;2023-05-07T12:09:58;29.10;;;2.20;;
19569;SDS011;9931;51.458;7.256;2023-05-07T12:12:23;27.35;;;2.17;;
19569;SDS011;9931;51.458;7.256;2023-05-07T12:14:48;18.57;;;1.93;;
19569;SDS011;9931;51.458;7.256;2023-05-07T12:17:14;40.20;;;3.47;;
19569;SDS011;9931;51.458;7.256;2023-05-07T12:19:40;25.98;;;2.13;;
19569;SDS011;9931;51.458;7.256;2023-05-07T12:22:09;19.70;;;1.65;;
19569;SDS011;9931;51.458;7.256;2023-05-07T12:24:47;26.58;;;2.08;;
19569;SDS011;9931;51.458;7.256;2023-05-07T12:27:13;16.13;;;1.38;;
19569;SDS011;9931;51.458;7.256;2023-05-07T12:29:38;53.72;;;3.70;;
19569;SDS011;9931;51.458;7.256;2023-05-07T12:32:05;37.90;;;2.65;;
19569;SDS011;9931;51.458;7.256;2023-05-07T12:34:31;19.42;;;1.73;;
19569;SDS011;9931;51.458;7.256;2023-05-07T12:36:56;13.90;;;1.27;;
19569;SDS011;9931;51.458;7.256;2023-05-07T12:39:21;19.70;;;1.67;;
19569;SDS011;9931;51.458;7.256;2023-05-07T12:41:56;32.27;;;2.53;;
19569;SDS011;9931;51.458;7.256;2023-05-07T12:44:22;35.50;;;2.60;;
19569;SDS011;9931;51.458;7.256;2023-05-07T12:46:47;33.60;;;2.58;;
19569;SDS011;9931;51.458;7.256;2023-05-07T12:49:12;63.45;;;4.63;;
19569;SDS011;9931;51.458;7.256;2023-05-07T12:51:37;27.92;;;2.08;;
19569;SDS011;9931;51.458;7.256;2023-05-07T12:54:03;34.20;;;2.60;;
19569;SDS011;9931;51.458;7.256;2023-05-07T12:56:30;45.90;;;3.33;;
19569;SDS011;9931;51.458;7.256;2023-05-07T12:58:57;27.65;;;2.25;;
19569;SDS011;9931;51.458;7.256;2023-05-07T13:01:22;62.90;;;4.20;;
19569;SDS011;9931;51.458;7.256;2023-05-07T13:03:48;12.73;;;1.23;;
19569;SDS011;9931;51.458;7.256;2023-05-07T13:06:15;37.92;;;2.72;;
19569;SDS011;9931;51.458;7.256;2023-05-07T13:08:40;50.47;;;3.53;;
19569;SDS011;9931;51.458;7.256;2023-05-07T13:11:08;12.95;;;1.33;;
19569;SDS011;9931;51.458;7.256;2023-05-07T13:13:35;26.77;;;2.10;;
19569;SDS011;9931;51.458;7.256;2023-05-07T13:16:01;23.77;;;2.03;;
19569;SDS011;9931;51.458;7.256;2023-05-07T13:18:27;22.17;;;1.90;;
19569;SDS011;9931;51.458;7.256;2023-05-07T13:20:55;40.38;;;2.90;;
19569;SDS011;9931;51.458;7.256;2023-05-07T13:23:20;30.55;;;2.40;;
19569;SDS011;9931;51.458;7.256;2023-05-07T13:25:46;17.73;;;1.58;;
19569;SDS011;9931;51.458;7.256;2023-05-07T13:28:11;25.48;;;2.05;;
19569;SDS011;9931;51.458;7.256;2023-05-07T13:30:37;37.60;;;2.75;;
19569;SDS011;9931;51.458;7.256;2023-05-07T13:33:02;30.33;;;2.33;;
19569;SDS011;9931;51.458;7.256;2023-05-07T13:35:27;17.73;;;1.40;;
19569;SDS011;9931;51.458;7.256;2023-05-07T13:37:52;34.78;;;2.60;;
19569;SDS011;9931;51.458;7.256;2023-05-07T13:40:19;21.33;;;1.75;;
19569;SDS011;9931;51.458;7.256;2023-05-07T13:42:44;27.30;;;2.05;;
19569;SDS011;9931;51.458;7.256;2023-05-07T13:45:10;28.48;;;2.10;;
19569;SDS011;9931;51.458;7.256;2023-05-07T13:47:35;20.40;;;1.65;;
19569;SDS011;9931;51.458;7.256;2023-05-07T13:50:00;48.28;;;3.45;;
19569;SDS011;9931;51.458;7.256;2023-05-07T13:52:25;47.20;;;3.28;;
19569;SDS011;9931;51.458;7.256;2023-05-07T13:54:51;43.95;;;3.10;;
19569;SDS011;9931;51.458;7.256;2023-05-07T13:57:17;69.93;;;6.32;;
19569;SDS011;9931;51.458;7.256;2023-05-07T13:59:42;73.70;;;5.87;;
19569;SDS011;9931;51.458;7.256;2023-05-07T14:02:08;24.80;;;3.13;;
19569;SDS011;9931;51.458;7.256;2023-05-07T14:04:34;34.47;;;3.38;;
19569;SDS011;9931;51.458;7.256;2023-05-07T14:06:59;33.65;;;3.60;;
19569;SDS011;9931;51.458;7.256;2023-05-07T14:09:25;59.50;;;4.57;;
19569;SDS011;9931;51.458;7.256;2023-05-07T14:11:50;22.33;;;2.70;;
19569;SDS011;9931;51.458;7.256;2023-05-07T14:14:17;22.48;;;3.38;;
19569;SDS011;9931;51.458;7.256;2023-05-07T14:16:42;57.25;;;5.97;;
19569;SDS011;9931;51.458;7.256;2023-05-07T14:19:07;20.83;;;3.43;;
19569;SDS011;9931;51.458;7.256;2023-05-07T14:21:32;34.47;;;4.22;;
19569;SDS011;9931;51.458;7.256;2023-05-07T14:23:57;27.15;;;4.05;;
19569;SDS011;9931;51.458;7.256;2023-05-07T14:26:23;41.88;;;4.68;;
19569;SDS011;9931;51.458;7.256;2023-05-07T14:28:48;78.78;;;7.72;;
19569;SDS011;9931;51.458;7.256;2023-05-07T14:31:13;32.78;;;5.30;;
19569;SDS011;9931;51.458;7.256;2023-05-07T14:33:38;13.70;;;4.75;;
19569;SDS011;9931;51.458;7.256;2023-05-07T14:36:04;40.30;;;5.85;;
19569;SDS011;9931;51.458;7.256;2023-05-07T14:38:29;27.65;;;4.68;;
19569;SDS011;9931;51.458;7.256;2023-05-07T14:40:55;25.15;;;5.97;;
19569;SDS011;9931;51.458;7.256;2023-05-07T14:43:21;65.18;;;9.38;;
19569;SDS011;9931;51.458;7.256;2023-05-07T14:45:46;27.20;;;7.53;;
19569;SDS011;9931;51.458;7.256;2023-05-07T14:48:12;20.30;;;4.47;;
19569;SDS011;9931;51.458;7.256;2023-05-07T14:50:40;29.13;;;4.68;;
19569;SDS011;9931;51.458;7.256;2023-05-07T14:53:05;60.75;;;6.78;;
19569;SDS011;9931;51.458;7.256;2023-05-07T14:55:30;46.80;;;5.75;;